Date,TemperatureHighF,TemperatureAvgF,TemperatureLowF,DewpointHighF,DewpointAvgF,DewpointLowF,HumidityHigh,HumidityAvg,HumidityLow,PressureMaxIn,PressureMinIn,WindSpeedMaxMPH,WindSpeedAvgMPH,GustSpeedMaxMPH,PrecipitationSumIn
2013-4-1,65.5,52.5,44.8,50.0,44.4,40.6,98,76,47,30.06,29.85,3,1,10,0.00
2013-4-2,57.2,51.7,48.0,49.3,45.9,43.7,96,81,62,30.09,30.06,2,0,8,0.00
2013-4-3,67.3,54.4,43.0,50.7,41.9,35.6,98,67,35,30.09,29.85,2,0,8,0.00
2013-4-4,56.5,51.8,48.6,54.9,48.9,42.6,98,90,73,29.85,29.56,5,1,14,0.28
2013-4-5,62.8,52.7,47.3,52.5,48.4,43.7,98,87,53,29.76,29.65,6,3,15,0.56
2013-4-6,55.2,47.6,43.3,49.1,44.3,39.9,98,89,63,29.85,29.62,5,2,17,0.36
2013-4-7,45.3,42.4,39.6,44.8,41.8,39.0,98,98,98,29.79,29.41,3,0,9,0.92
2013-4-8,56.1,46.8,41.4,52.7,43.9,40.8,98,90,64,30.18,29.79,2,0,6,0.08
2013-4-9,58.5,49.6,41.7,49.6,41.3,36.5,98,76,46,30.27,30.09,2,0,6,0.00
2013-4-10,65.1,51.4,46.9,53.1,45.5,40.3,98,81,45,30.15,29.85,6,2,15,0.16
2013-4-11,46.9,45.7,45.0,44.2,42.6,40.6,92,89,84,30.18,30.15,3,1,10,0.00
2013-4-13,40.5,40.4,39.9,39.9,39.8,39.4,98,98,98,29.91,29.85,2,0,5,0.16
2013-4-14,57.6,44.1,37.4,51.6,37.2,27.3,98,81,37,29.91,29.82,4,0,10,0.43
2013-4-15,57.6,44.6,36.7,47.8,38.1,33.4,98,81,44,30.09,29.85,3,0,15,0.04
2013-4-16,59.2,44.6,35.8,51.6,36.2,28.2,98,76,36,30.30,30.09,3,0,11,0.04
2013-4-17,66.0,49.4,34.3,45.7,34.6,26.1,98,64,25,30.36,30.30,3,1,8,0.00
2013-4-18,51.8,47.2,43.3,48.2,40.8,35.6,98,79,62,30.36,30.12,3,1,11,0.20
2013-4-19,56.7,50.5,46.9,55.0,49.7,46.4,98,97,89,30.12,29.97,5,2,12,1.03
2013-4-20,57.4,49.3,45.5,50.4,46.5,44.2,98,91,66,30.18,30.09,3,1,10,0.12
2013-4-21,54.3,46.5,38.7,50.0,41.7,35.4,98,84,56,30.27,30.12,3,1,10,0.04
2013-4-22,64.0,47.8,34.3,45.3,31.5,18.7,98,61,25,30.41,30.27,2,1,10,0.00
2013-4-23,65.5,49.4,34.5,42.6,31.1,24.1,97,55,24,30.33,30.15,3,0,10,0.00
2013-4-24,72.1,54.1,36.9,47.5,32.9,25.9,98,52,22,30.24,29.97,3,0,9,0.00
2013-4-25,74.1,57.7,40.5,40.6,34.4,30.7,86,46,23,30.03,29.94,2,0,8,0.00
2013-4-26,71.2,57.7,43.5,49.3,42.7,37.4,98,62,32,30.15,30.03,3,1,11,0.00
2013-4-27,55.0,53.1,49.3,50.4,40.6,30.7,96,65,40,30.12,30.06,5,2,13,0.04
2013-4-28,64.0,51.7,46.2,50.4,42.8,34.0,97,75,37,30.12,29.85,4,2,12,0.04
2013-4-29,57.2,47.0,39.2,51.3,40.4,32.2,98,80,46,30.06,29.82,4,1,8,0.36
2013-4-30,57.6,44.0,34.0,46.2,32.9,20.7,98,70,29,30.33,30.06,2,0,8,0.16